createdAt,value
2019-02-15T00:00:58.269Z,9.60
2019-02-15T00:03:48.591Z,10.60
2019-02-15T00:06:38.910Z,11.27
2019-02-15T00:09:29.316Z,10.50
2019-02-15T00:12:19.516Z,7.60
2019-02-15T00:15:09.916Z,8.93
2019-02-15T00:18:15.839Z,8.90
2019-02-15T00:21:24.988Z,7.07
2019-02-15T00:24:14.824Z,7.83
2019-02-15T00:27:05.338Z,7.53
2019-02-15T00:30:00.344Z,8.00
2019-02-15T00:32:50.570Z,8.67
2019-02-15T00:35:41.071Z,9.53
2019-02-15T00:38:31.577Z,8.17
2019-02-15T00:41:21.885Z,7.97
2019-02-15T00:44:12.321Z,8.23
2019-02-15T00:47:21.594Z,8.80
2019-02-15T00:50:39.741Z,7.23
2019-02-15T00:54:07.366Z,6.67
2019-02-15T00:57:16.690Z,8.63
2019-02-15T01:00:24.233Z,7.40
2019-02-15T01:03:33.299Z,9.20
2019-02-15T01:06:48.569Z,8.33
2019-02-15T01:09:43.674Z,7.43
2019-02-15T01:12:55.827Z,8.60
2019-02-15T01:15:45.822Z,9.60
2019-02-15T01:18:36.216Z,7.53
2019-02-15T01:21:26.531Z,5.60
2019-02-15T01:24:16.916Z,7.57
2019-02-15T01:27:29.156Z,6.80
2019-02-15T01:30:47.224Z,8.80
2019-02-15T01:33:56.688Z,7.03
2019-02-15T01:37:04.440Z,8.40
2019-02-15T01:40:09.550Z,7.70
2019-02-15T01:43:10.783Z,6.03
2019-02-15T01:46:26.254Z,7.70
2019-02-15T01:49:16.430Z,6.50
2019-02-15T01:52:07.720Z,6.57
2019-02-15T01:54:58.132Z,9.37
2019-02-15T01:57:48.663Z,6.67
2019-02-15T02:00:39.320Z,6.83
2019-02-15T02:03:29.667Z,7.90
2019-02-15T02:06:19.767Z,6.77
2019-02-15T02:09:10.412Z,6.80
2019-02-15T02:12:00.986Z,8.43
2019-02-15T02:14:51.240Z,8.23
2019-02-15T02:17:41.522Z,8.20
2019-02-15T02:20:31.892Z,9.13
2019-02-15T02:23:22.158Z,7.87
2019-02-15T02:26:12.609Z,7.00
2019-02-15T02:29:02.892Z,7.00
2019-02-15T02:31:53.272Z,6.67
2019-02-15T02:34:43.546Z,9.70
2019-02-15T02:37:33.969Z,8.83
2019-02-15T02:40:24.511Z,6.43
2019-02-15T02:43:15.075Z,8.87
2019-02-15T02:46:05.318Z,8.63
2019-02-15T02:48:55.350Z,7.20
2019-02-15T02:51:45.647Z,6.30
2019-02-15T02:54:35.980Z,6.93
2019-02-15T02:57:27.440Z,6.93
2019-02-15T03:00:17.829Z,8.77
2019-02-15T03:03:08.128Z,6.77
2019-02-15T03:05:58.606Z,9.27
2019-02-15T03:08:48.905Z,6.80
2019-02-15T03:11:39.236Z,8.07
2019-02-15T03:14:29.364Z,7.10
2019-02-15T03:17:19.802Z,8.17
2019-02-15T03:20:10.050Z,7.30
2019-02-15T03:23:00.269Z,7.10
2019-02-15T03:25:50.379Z,7.90
2019-02-15T03:28:41.485Z,9.27
2019-02-15T03:31:31.777Z,9.67
2019-02-15T03:34:23.357Z,8.17
2019-02-15T03:37:44.912Z,8.07
2019-02-15T03:40:44.205Z,7.60
2019-02-15T03:43:34.877Z,9.10
2019-02-15T03:46:27.383Z,9.37
2019-02-15T03:49:17.712Z,9.77
2019-02-15T03:52:08.117Z,10.93
2019-02-15T03:54:58.493Z,9.07
2019-02-15T03:57:48.904Z,9.27
2019-02-15T04:00:38.896Z,10.33
2019-02-15T04:03:29.088Z,8.53
2019-02-15T04:06:19.615Z,9.77
2019-02-15T04:09:09.677Z,8.77
2019-02-15T04:11:59.961Z,8.73
2019-02-15T04:14:50.297Z,8.23
2019-02-15T04:17:40.583Z,9.97
2019-02-15T04:20:31.023Z,11.97
2019-02-15T04:23:21.221Z,8.53
2019-02-15T04:26:11.374Z,8.73
2019-02-15T04:29:01.878Z,9.23
2019-02-15T04:31:52.358Z,11.13
2019-02-15T04:34:42.901Z,10.53
2019-02-15T04:37:33.396Z,8.77
2019-02-15T04:40:23.587Z,9.83
2019-02-15T04:43:13.904Z,9.70
2019-02-15T04:46:03.960Z,14.00
2019-02-15T04:48:53.993Z,8.17
2019-02-15T04:51:43.977Z,9.83
2019-02-15T04:54:34.170Z,8.40
2019-02-15T04:57:24.353Z,9.07
2019-02-15T05:00:15.013Z,9.00
2019-02-15T05:03:05.368Z,10.47
2019-02-15T05:05:55.785Z,9.13
2019-02-15T05:08:45.874Z,11.23
2019-02-15T05:11:36.190Z,7.63
2019-02-15T05:14:26.333Z,7.33
2019-02-15T05:17:16.783Z,7.57
2019-02-15T05:20:07.101Z,6.20
2019-02-15T05:22:57.506Z,7.43
2019-02-15T05:25:47.829Z,8.67
2019-02-15T05:28:38.341Z,5.80
2019-02-15T05:31:31.608Z,5.97
2019-02-15T05:34:21.767Z,6.57
2019-02-15T05:37:12.304Z,7.27
2019-02-15T05:40:05.235Z,6.93
2019-02-15T05:42:58.352Z,8.70
2019-02-15T05:45:48.655Z,7.07
2019-02-15T05:48:39.058Z,6.60
2019-02-15T05:51:29.411Z,8.00
2019-02-15T05:54:19.720Z,7.17
2019-02-15T05:57:10.168Z,6.63
2019-02-15T06:00:00.489Z,9.57
2019-02-15T06:02:50.634Z,5.97
2019-02-15T06:05:40.860Z,7.00
2019-02-15T06:08:31.416Z,6.90
2019-02-15T06:11:21.766Z,4.23
2019-02-15T06:14:12.381Z,4.47
2019-02-15T06:17:02.840Z,5.70
2019-02-15T06:19:53.289Z,5.87
2019-02-15T06:22:43.607Z,6.27
2019-02-15T06:25:34.270Z,4.77
2019-02-15T06:28:24.522Z,5.20
2019-02-15T06:31:14.748Z,6.70
2019-02-15T06:34:05.236Z,6.80
2019-02-15T06:36:55.670Z,6.07
2019-02-15T06:39:45.980Z,6.93
2019-02-15T06:42:36.331Z,5.90
2019-02-15T06:45:26.798Z,6.17
2019-02-15T06:48:17.262Z,6.50
2019-02-15T06:51:07.664Z,7.27
2019-02-15T06:53:58.363Z,6.47
2019-02-15T06:56:48.688Z,7.67
2019-02-15T06:59:56.139Z,7.53
2019-02-15T07:03:11.209Z,6.00
2019-02-15T07:06:01.694Z,6.50
2019-02-15T07:08:51.869Z,6.43
2019-02-15T07:11:42.167Z,5.30
2019-02-15T07:14:32.520Z,7.07
2019-02-15T07:17:22.835Z,5.87
2019-02-15T07:20:13.103Z,5.53
2019-02-15T07:23:03.333Z,5.53
2019-02-15T07:25:53.608Z,5.87
2019-02-15T07:28:43.973Z,7.03
2019-02-15T07:31:34.026Z,6.67
2019-02-15T07:34:24.621Z,5.93
2019-02-15T07:37:16.916Z,7.27
2019-02-15T07:40:07.842Z,6.50
2019-02-15T07:42:58.141Z,5.90
2019-02-15T07:45:49.294Z,4.67
2019-02-15T07:48:39.343Z,5.27
2019-02-15T07:51:30.891Z,6.43
2019-02-15T07:54:20.902Z,5.50
2019-02-15T07:57:11.209Z,7.13
2019-02-15T08:00:01.336Z,6.20
2019-02-15T08:02:52.961Z,7.80
2019-02-15T08:05:42.930Z,7.87
2019-02-15T08:08:37.114Z,7.70
2019-02-15T08:11:27.162Z,6.37
2019-02-15T08:14:17.760Z,6.80
2019-02-15T08:17:07.996Z,8.20
2019-02-15T08:19:58.230Z,5.70
2019-02-15T08:22:48.660Z,7.90
2019-02-15T08:25:38.760Z,6.53
2019-02-15T08:28:28.931Z,9.00
2019-02-15T08:31:19.285Z,6.33
2019-02-15T08:34:09.534Z,6.87
2019-02-15T08:37:00.982Z,6.80
2019-02-15T08:39:51.177Z,5.93
2019-02-15T08:42:41.317Z,4.90
2019-02-15T08:45:31.665Z,6.50
2019-02-15T08:48:22.017Z,6.00
2019-02-15T08:51:12.212Z,5.67
2019-02-15T08:54:02.494Z,3.63
2019-02-15T08:56:52.782Z,4.13
2019-02-15T08:59:43.133Z,4.47
2019-02-15T09:02:33.186Z,3.10
2019-02-15T09:05:23.502Z,4.23
2019-02-15T09:08:13.701Z,3.30
2019-02-15T09:11:04.021Z,4.47
2019-02-15T09:13:54.057Z,1.90
2019-02-15T09:16:44.373Z,2.77
2019-02-15T09:19:34.470Z,2.00
2019-02-15T09:22:24.763Z,1.80
2019-02-15T09:25:14.989Z,2.10
2019-02-15T09:28:20.393Z,2.97
2019-02-15T09:31:10.462Z,3.43
2019-02-15T09:34:00.842Z,2.77
2019-02-15T09:36:51.080Z,3.80
2019-02-15T09:39:41.704Z,3.43
2019-02-15T09:42:31.853Z,3.17
2019-02-15T09:45:22.128Z,3.03
2019-02-15T09:48:13.499Z,2.60
2019-02-15T09:51:03.894Z,3.83
2019-02-15T09:53:54.099Z,2.47
2019-02-15T09:56:44.373Z,2.50
2019-02-15T09:59:34.729Z,2.53
2019-02-15T10:02:25.142Z,2.17
2019-02-15T10:05:15.392Z,4.10
2019-02-15T10:08:05.361Z,5.23
2019-02-15T10:10:55.337Z,7.60
2019-02-15T10:13:45.593Z,4.13
2019-02-15T10:16:35.564Z,3.27
2019-02-15T10:19:25.879Z,4.50
2019-02-15T10:22:16.112Z,4.67
2019-02-15T10:25:06.503Z,4.77
2019-02-15T10:27:56.688Z,4.57
2019-02-15T10:30:46.919Z,4.60
2019-02-15T10:33:36.980Z,4.23
2019-02-15T10:36:27.331Z,3.90
2019-02-15T10:39:19.271Z,5.27
2019-02-15T10:42:09.782Z,5.07
2019-02-15T10:45:00.244Z,4.93
2019-02-15T10:47:50.451Z,3.60
2019-02-15T10:50:40.590Z,2.33
2019-02-15T10:53:30.711Z,1.97
2019-02-15T10:56:20.908Z,1.47
2019-02-15T10:59:11.265Z,2.60
2019-02-15T11:02:01.653Z,3.30
2019-02-15T11:04:51.821Z,1.13
2019-02-15T11:07:42.128Z,1.20
2019-02-15T11:10:33.474Z,2.13
2019-02-15T11:13:23.938Z,2.97
2019-02-15T11:16:14.019Z,1.40
2019-02-15T11:19:04.231Z,1.70
2019-02-15T11:21:54.679Z,1.70
2019-02-15T11:24:44.893Z,3.80
2019-02-15T11:27:35.224Z,1.70
2019-02-15T11:30:25.469Z,1.80
2019-02-15T11:33:15.780Z,2.00
2019-02-15T11:36:05.865Z,4.77
2019-02-15T11:38:56.307Z,3.90
2019-02-15T11:41:46.711Z,3.73
2019-02-15T11:44:39.935Z,2.27
2019-02-15T11:47:30.180Z,5.23
2019-02-15T11:50:20.844Z,3.63
2019-02-15T11:53:13.888Z,3.00
2019-02-15T11:56:04.305Z,3.00
2019-02-15T11:58:54.500Z,4.33
2019-02-15T12:01:44.773Z,2.53
2019-02-15T12:04:35.061Z,6.63
2019-02-15T12:07:25.097Z,3.10
2019-02-15T12:10:15.341Z,3.17
2019-02-15T12:13:05.727Z,3.53
2019-02-15T12:15:55.950Z,2.27
2019-02-15T12:18:46.439Z,1.87
2019-02-15T12:21:36.896Z,2.97
2019-02-15T12:24:27.386Z,1.73
2019-02-15T12:27:17.915Z,2.10
2019-02-15T12:30:09.308Z,3.60
2019-02-15T12:32:59.581Z,3.33
2019-02-15T12:35:49.562Z,3.67
2019-02-15T12:38:39.730Z,5.50
2019-02-15T12:41:30.832Z,3.57
2019-02-15T12:44:21.163Z,5.47
2019-02-15T12:47:15.177Z,5.40
2019-02-15T12:50:03.018Z,2.77
2019-02-15T12:52:53.907Z,3.23
2019-02-15T12:55:44.040Z,3.27
2019-02-15T12:58:34.600Z,7.23
2019-02-15T13:01:24.760Z,5.30
2019-02-15T13:04:15.047Z,4.13
2019-02-15T13:07:05.445Z,4.27
2019-02-15T13:09:55.850Z,3.37
2019-02-15T13:12:46.150Z,2.13
2019-02-15T13:15:36.193Z,2.90
2019-02-15T13:18:26.479Z,3.70
2019-02-15T13:21:16.646Z,3.83
2019-02-15T13:24:07.124Z,3.13
2019-02-15T13:26:57.614Z,4.13
2019-02-15T13:29:47.940Z,4.73
2019-02-15T13:32:37.968Z,3.57
2019-02-15T13:35:28.204Z,3.83
2019-02-15T13:38:18.580Z,2.97
2019-02-15T13:41:08.548Z,5.30
2019-02-15T13:43:58.584Z,3.63
2019-02-15T13:46:48.801Z,2.07
2019-02-15T13:49:39.232Z,4.60
2019-02-15T13:52:29.798Z,5.13
2019-02-15T13:55:20.207Z,3.07
2019-02-15T13:58:10.395Z,3.23
2019-02-15T14:01:00.513Z,4.80
2019-02-15T14:03:50.521Z,3.43
2019-02-15T14:06:40.816Z,4.13
2019-02-15T14:09:31.098Z,3.53
2019-02-15T14:12:21.477Z,6.00
2019-02-15T14:15:11.806Z,2.37
2019-02-15T14:18:02.144Z,5.87
2019-02-15T14:20:52.697Z,1.90
2019-02-15T14:23:42.837Z,3.90
2019-02-15T14:26:32.867Z,3.33
2019-02-15T14:29:23.076Z,3.43
2019-02-15T14:32:13.400Z,3.57
2019-02-15T14:35:03.518Z,2.33
2019-02-15T14:37:53.759Z,2.83
2019-02-15T14:40:44.335Z,3.53
2019-02-15T14:43:34.533Z,3.10
2019-02-15T14:46:25.003Z,4.17
2019-02-15T14:49:15.356Z,5.23
2019-02-15T14:52:05.866Z,2.40
2019-02-15T14:54:55.858Z,4.17
2019-02-15T14:57:46.444Z,1.83
2019-02-15T15:00:36.473Z,3.47
2019-02-15T15:03:26.712Z,6.83
2019-02-15T15:06:16.974Z,2.50
2019-02-15T15:09:07.843Z,2.50
2019-02-15T15:11:57.805Z,3.07
2019-02-15T15:14:48.211Z,3.37
2019-02-15T15:17:38.629Z,5.27
2019-02-15T15:20:29.107Z,3.47
2019-02-15T15:23:19.284Z,5.70
2019-02-15T15:26:11.806Z,1.83
2019-02-15T15:29:01.151Z,4.37
2019-02-15T15:31:51.685Z,3.03
2019-02-15T15:34:41.936Z,3.13
2019-02-15T15:37:32.419Z,3.80
2019-02-15T15:40:22.621Z,2.10
2019-02-15T15:43:12.906Z,2.03
2019-02-15T15:46:03.190Z,4.27
2019-02-15T15:48:53.519Z,2.80
2019-02-15T15:51:43.842Z,2.53
2019-02-15T15:54:34.326Z,3.30
2019-02-15T15:57:24.613Z,1.90
2019-02-15T16:00:15.095Z,1.60
2019-02-15T16:03:05.345Z,2.13
2019-02-15T16:05:55.784Z,2.67
2019-02-15T16:08:46.021Z,1.67
2019-02-15T16:11:36.280Z,2.00
2019-02-15T16:14:26.636Z,1.63
2019-02-15T16:17:17.205Z,2.80
2019-02-15T16:20:08.523Z,7.57
2019-02-15T16:22:59.982Z,4.97
2019-02-15T16:25:52.555Z,1.67
2019-02-15T16:28:43.071Z,2.33
2019-02-15T16:31:33.324Z,2.87
2019-02-15T16:34:23.774Z,3.23
2019-02-15T16:37:13.944Z,3.47
2019-02-15T16:40:04.372Z,2.17
2019-02-15T16:42:54.642Z,4.27
2019-02-15T16:45:45.209Z,3.03
2019-02-15T16:48:41.855Z,3.00
2019-02-15T16:51:27.174Z,2.13
2019-02-15T16:54:17.479Z,2.10
2019-02-15T16:57:08.149Z,3.47
2019-02-15T16:59:58.623Z,4.60
2019-02-15T17:02:48.825Z,3.60
2019-02-15T17:05:39.115Z,3.87
2019-02-15T17:08:29.597Z,2.17
2019-02-15T17:11:19.833Z,3.20
2019-02-15T17:14:12.818Z,3.17
2019-02-15T17:17:03.152Z,2.60
2019-02-15T17:19:53.544Z,1.67
2019-02-15T17:22:43.668Z,2.90
2019-02-15T17:25:34.083Z,6.87
2019-02-15T17:28:24.283Z,5.70
2019-02-15T17:31:14.789Z,4.03
2019-02-15T17:34:05.085Z,2.53
2019-02-15T17:36:55.504Z,2.67
2019-02-15T17:39:45.689Z,5.50
2019-02-15T17:42:35.691Z,3.73
2019-02-15T17:45:25.687Z,4.20
2019-02-15T17:48:16.054Z,3.57
2019-02-15T17:51:06.061Z,4.00
2019-02-15T17:53:56.689Z,3.20
2019-02-15T17:56:46.979Z,2.60
2019-02-15T17:59:38.151Z,4.07
2019-02-15T18:02:30.463Z,3.77
2019-02-15T18:05:21.275Z,5.93
2019-02-15T18:08:11.662Z,3.93
2019-02-15T18:11:02.379Z,4.13
2019-02-15T18:13:52.492Z,8.73
2019-02-15T18:16:42.648Z,4.53
2019-02-15T18:19:37.006Z,4.20
2019-02-15T18:22:28.387Z,6.33
2019-02-15T18:25:18.549Z,3.20
2019-02-15T18:28:08.879Z,3.87
2019-02-15T18:30:59.052Z,7.07
2019-02-15T18:33:49.484Z,2.80
2019-02-15T18:36:39.770Z,4.43
2019-02-15T18:39:30.296Z,3.13
2019-02-15T18:42:20.655Z,2.73
2019-02-15T18:45:12.296Z,2.50
2019-02-15T18:48:05.005Z,4.17
2019-02-15T18:50:55.437Z,8.23
2019-02-15T18:53:46.130Z,3.00
2019-02-15T18:56:36.531Z,2.80
2019-02-15T18:59:26.760Z,3.57
2019-02-15T19:02:17.234Z,4.93
2019-02-15T19:05:08.602Z,3.53
2019-02-15T19:07:58.580Z,4.10
2019-02-15T19:10:48.819Z,7.80
2019-02-15T19:13:39.095Z,3.57
2019-02-15T19:16:29.324Z,4.10
2019-02-15T19:19:28.657Z,5.90
2019-02-15T19:22:11.400Z,6.37
2019-02-15T19:25:02.000Z,9.07
2019-02-15T19:27:52.146Z,9.97
2019-02-15T19:30:42.461Z,7.70
2019-02-15T19:33:32.596Z,10.07
2019-02-15T19:36:22.930Z,7.70
2019-02-15T19:39:13.152Z,8.57
2019-02-15T19:42:04.483Z,11.27
2019-02-15T19:44:54.728Z,10.30
2019-02-15T19:47:44.968Z,6.67
2019-02-15T19:50:35.079Z,7.43
2019-02-15T19:53:25.200Z,5.50
2019-02-15T19:56:16.798Z,11.33
2019-02-15T19:59:07.268Z,8.70
2019-02-15T20:01:57.482Z,9.87
2019-02-15T20:04:47.987Z,8.97
2019-02-15T20:07:38.077Z,7.13
2019-02-15T20:10:29.480Z,6.37
2019-02-15T20:13:20.927Z,7.07
2019-02-15T20:16:10.908Z,8.47
2019-02-15T20:19:02.258Z,8.47
2019-02-15T20:21:52.617Z,10.63
2019-02-15T20:24:42.888Z,6.90
2019-02-15T20:27:33.935Z,9.30
2019-02-15T20:30:25.115Z,7.40
2019-02-15T20:33:15.616Z,8.80
2019-02-15T20:36:05.974Z,13.17
2019-02-15T20:38:56.838Z,8.13
2019-02-15T20:41:47.235Z,6.93
2019-02-15T20:44:37.694Z,6.43
2019-02-15T20:47:28.004Z,9.50
2019-02-15T20:50:18.391Z,7.53
2019-02-15T20:53:08.819Z,6.03
2019-02-15T20:55:59.260Z,7.37
2019-02-15T20:58:49.551Z,7.33
2019-02-15T21:01:40.041Z,6.80
2019-02-15T21:04:30.545Z,8.40
2019-02-15T21:07:22.151Z,5.47
2019-02-15T21:10:12.527Z,6.03
2019-02-15T21:13:02.928Z,6.33
2019-02-15T21:15:52.904Z,10.70
2019-02-15T21:18:43.141Z,6.10
2019-02-15T21:21:33.247Z,5.77
2019-02-15T21:24:23.359Z,7.23
2019-02-15T21:27:13.638Z,5.93
2019-02-15T21:30:03.989Z,6.67
2019-02-15T21:32:55.885Z,6.77
2019-02-15T21:35:46.241Z,7.37
2019-02-15T21:38:36.792Z,7.27
2019-02-15T21:41:27.263Z,6.90
2019-02-15T21:44:17.510Z,6.03
2019-02-15T21:47:07.543Z,9.47
2019-02-15T21:49:57.801Z,6.33
2019-02-15T21:52:49.262Z,6.87
2019-02-15T21:55:39.502Z,7.00
2019-02-15T21:58:29.887Z,5.87
2019-02-15T22:01:20.110Z,7.00
2019-02-15T22:04:10.572Z,4.13
2019-02-15T22:07:00.884Z,4.93
2019-02-15T22:09:51.496Z,4.80
2019-02-15T22:12:41.583Z,4.80
2019-02-15T22:15:31.889Z,6.17
2019-02-15T22:18:22.075Z,6.40
2019-02-15T22:21:12.010Z,6.53
2019-02-15T22:24:02.100Z,5.10
2019-02-15T22:26:52.054Z,5.33
2019-02-15T22:29:42.011Z,6.20
2019-02-15T22:32:32.514Z,5.03
2019-02-15T22:35:23.926Z,6.77
2019-02-15T22:38:14.424Z,6.27
2019-02-15T22:41:13.468Z,4.80
2019-02-15T22:44:03.554Z,6.23
2019-02-15T22:46:53.887Z,5.07
2019-02-15T22:49:44.215Z,4.60
2019-02-15T22:52:34.402Z,5.67
2019-02-15T22:55:25.953Z,6.53
2019-02-15T22:58:16.253Z,9.57
2019-02-15T23:01:16.032Z,6.73
2019-02-15T23:04:06.145Z,8.60
2019-02-15T23:06:56.466Z,7.23
2019-02-15T23:09:46.675Z,6.40
2019-02-15T23:12:37.179Z,6.03
2019-02-15T23:15:27.217Z,8.40
2019-02-15T23:18:18.935Z,5.77
2019-02-15T23:21:09.539Z,6.17
2019-02-15T23:23:59.658Z,5.93
2019-02-15T23:26:49.707Z,6.20
2019-02-15T23:29:39.744Z,5.70
2019-02-15T23:32:29.924Z,5.73
2019-02-15T23:35:20.360Z,8.43
2019-02-15T23:38:10.660Z,9.17
2019-02-15T23:41:01.112Z,6.00
2019-02-15T23:43:51.467Z,6.13
2019-02-15T23:46:41.787Z,5.30
2019-02-15T23:49:31.758Z,5.97
2019-02-15T23:52:24.639Z,9.60
2019-02-15T23:55:14.927Z,5.73
2019-02-15T23:58:06.295Z,6.03
